sensor_id;sensor_type;location;lat;lon;timestamp;pressure;altitude;pressure_sealevel;temperature;humidity
22580;BME280;11456;47.030;15.396;2023-01-09T00:01:58;96534.53;;;4.28;96.64
22580;BME280;11456;47.030;15.396;2023-01-09T00:04:25;96535.91;;;4.42;96.34
22580;BME280;11456;47.030;15.396;2023-01-09T00:06:51;96521.06;;;4.30;96.09
22580;BME280;11456;47.030;15.396;2023-01-09T00:09:21;96525.00;;;4.26;96.25
22580;BME280;11456;47.030;15.396;2023-01-09T00:11:48;96525.00;;;4.26;97.06
22580;BME280;11456;47.030;15.396;2023-01-09T00:14:15;96524.72;;;4.29;96.88
22580;BME280;11456;47.030;15.396;2023-01-09T00:16:42;96522.47;;;4.53;95.92
22580;BME280;11456;47.030;15.396;2023-01-09T00:19:09;96518.22;;;4.60;94.66
22580;BME280;11456;47.030;15.396;2023-01-09T00:21:36;96523.44;;;4.42;95.56
22580;BME280;11456;47.030;15.396;2023-01-09T00:24:02;96508.16;;;4.35;96.19
22580;BME280;11456;47.030;15.396;2023-01-09T00:26:29;96507.59;;;4.31;96.39
22580;BME280;11456;47.030;15.396;2023-01-09T00:28:56;96501.00;;;4.26;96.38
22580;BME280;11456;47.030;15.396;2023-01-09T00:31:23;96501.16;;;4.15;96.90
22580;BME280;11456;47.030;15.396;2023-01-09T00:36:16;96503.94;;;4.23;96.73
22580;BME280;11456;47.030;15.396;2023-01-09T00:38:42;96495.84;;;4.15;96.78
22580;BME280;11456;47.030;15.396;2023-01-09T00:41:10;96487.97;;;4.32;96.94
22580;BME280;11456;47.030;15.396;2023-01-09T00:43:39;96479.84;;;4.34;96.73
22580;BME280;11456;47.030;15.396;2023-01-09T00:46:07;96477.03;;;4.07;97.42
22580;BME280;11456;47.030;15.396;2023-01-09T00:48:34;96469.19;;;4.15;98.04
22580;BME280;11456;47.030;15.396;2023-01-09T00:51:02;96461.59;;;4.29;97.58
22580;BME280;11456;47.030;15.396;2023-01-09T00:53:30;96451.19;;;4.36;97.13
22580;BME280;11456;47.030;15.396;2023-01-09T00:55:58;96454.75;;;4.27;97.40
22580;BME280;11456;47.030;15.396;2023-01-09T00:58:26;96455.44;;;4.29;97.26
22580;BME280;11456;47.030;15.396;2023-01-09T01:00:53;96461.09;;;4.72;96.59
22580;BME280;11456;47.030;15.396;2023-01-09T01:03:19;96465.50;;;4.54;96.71
22580;BME280;11456;47.030;15.396;2023-01-09T01:05:46;96452.09;;;4.73;94.58
22580;BME280;11456;47.030;15.396;2023-01-09T01:08:31;96454.88;;;4.35;96.43
22580;BME280;11456;47.030;15.396;2023-01-09T01:10:58;96457.81;;;4.32;96.86
22580;BME280;11456;47.030;15.396;2023-01-09T01:13:28;96445.19;;;4.34;97.12
22580;BME280;11456;47.030;15.396;2023-01-09T01:15:55;96435.25;;;4.26;97.51
22580;BME280;11456;47.030;15.396;2023-01-09T01:18:21;96431.31;;;4.21;98.14
22580;BME280;11456;47.030;15.396;2023-01-09T01:20:48;96429.47;;;4.31;97.89
22580;BME280;11456;47.030;15.396;2023-01-09T01:23:14;96426.22;;;4.37;97.52
22580;BME280;11456;47.030;15.396;2023-01-09T01:25:41;96424.53;;;4.36;98.01
22580;BME280;11456;47.030;15.396;2023-01-09T01:28:08;96425.00;;;4.68;95.42
22580;BME280;11456;47.030;15.396;2023-01-09T01:30:38;96408.44;;;4.28;96.72
22580;BME280;11456;47.030;15.396;2023-01-09T01:33:06;96419.41;;;4.06;98.20
22580;BME280;11456;47.030;15.396;2023-01-09T01:35:32;96413.81;;;4.09;98.77
22580;BME280;11456;47.030;15.396;2023-01-09T01:37:59;96414.50;;;4.11;98.74
22580;BME280;11456;47.030;15.396;2023-01-09T01:40:26;96403.31;;;3.97;99.39
22580;BME280;11456;47.030;15.396;2023-01-09T01:42:53;96396.28;;;4.06;99.72
22580;BME280;11456;47.030;15.396;2023-01-09T01:48:08;96385.06;;;4.22;99.07
22580;BME280;11456;47.030;15.396;2023-01-09T01:50:38;96379.72;;;4.22;100.00
22580;BME280;11456;47.030;15.396;2023-01-09T01:53:10;96384.44;;;4.37;100.00
22580;BME280;11456;47.030;15.396;2023-01-09T01:55:39;96382.59;;;4.38;99.69
22580;BME280;11456;47.030;15.396;2023-01-09T01:58:07;96390.16;;;4.42;99.50
22580;BME280;11456;47.030;15.396;2023-01-09T02:00:37;96382.47;;;4.30;99.74
22580;BME280;11456;47.030;15.396;2023-01-09T02:03:05;96389.44;;;4.50;99.70
22580;BME280;11456;47.030;15.396;2023-01-09T02:05:32;96384.09;;;4.50;99.32
22580;BME280;11456;47.030;15.396;2023-01-09T02:08:00;96380.72;;;4.48;98.72
22580;BME280;11456;47.030;15.396;2023-01-09T02:10:26;96376.56;;;4.36;99.25
22580;BME280;11456;47.030;15.396;2023-01-09T02:12:53;96376.47;;;4.28;100.00
22580;BME280;11456;47.030;15.396;2023-01-09T02:15:20;96369.28;;;4.38;98.80
22580;BME280;11456;47.030;15.396;2023-01-09T02:20:33;96378.78;;;4.50;98.81
22580;BME280;11456;47.030;15.396;2023-01-09T02:26:11;96370.63;;;4.52;98.75
22580;BME280;11456;47.030;15.396;2023-01-09T02:33:41;96359.72;;;4.45;99.05
22580;BME280;11456;47.030;15.396;2023-01-09T02:36:58;96347.34;;;4.54;98.41
22580;BME280;11456;47.030;15.396;2023-01-09T02:41:51;96363.38;;;4.44;99.99
22580;BME280;11456;47.030;15.396;2023-01-09T02:44:20;96360.81;;;4.52;99.23
22580;BME280;11456;47.030;15.396;2023-01-09T02:46:58;96363.72;;;4.22;100.00
22580;BME280;11456;47.030;15.396;2023-01-09T02:49:24;96364.34;;;4.43;100.00
22580;BME280;11456;47.030;15.396;2023-01-09T02:51:51;96358.75;;;4.46;99.94
22580;BME280;11456;47.030;15.396;2023-01-09T02:57:13;96360.25;;;4.49;100.00
22580;BME280;11456;47.030;15.396;2023-01-09T03:00:02;96335.53;;;4.56;100.00
22580;BME280;11456;47.030;15.396;2023-01-09T03:02:34;96345.22;;;4.57;99.48
22580;BME280;11456;47.030;15.396;2023-01-09T03:05:15;96337.66;;;4.53;99.36
22580;BME280;11456;47.030;15.396;2023-01-09T03:10:57;96325.22;;;4.43;99.75
22580;BME280;11456;47.030;15.396;2023-01-09T03:13:04;96323.38;;;4.44;99.91
22580;BME280;11456;47.030;15.396;2023-01-09T03:15:33;96315.69;;;4.41;100.00
22580;BME280;11456;47.030;15.396;2023-01-09T03:18:00;96319.00;;;4.53;100.00
22580;BME280;11456;47.030;15.396;2023-01-09T03:20:29;96319.78;;;4.63;100.00
22580;BME280;11456;47.030;15.396;2023-01-09T03:22:59;96312.53;;;4.55;100.00
22580;BME280;11456;47.030;15.396;2023-01-09T03:25:27;96310.88;;;4.54;100.00
22580;BME280;11456;47.030;15.396;2023-01-09T03:27:59;96307.03;;;4.57;100.00
22580;BME280;11456;47.030;15.396;2023-01-09T03:30:27;96307.78;;;4.49;100.00
22580;BME280;11456;47.030;15.396;2023-01-09T03:32:56;96318.44;;;4.49;100.00
22580;BME280;11456;47.030;15.396;2023-01-09T03:35:29;96304.69;;;4.54;100.00
22580;BME280;11456;47.030;15.396;2023-01-09T03:37:55;96313.25;;;4.75;100.00
22580;BME280;11456;47.030;15.396;2023-01-09T03:40:24;96319.75;;;4.72;100.00
22580;BME280;11456;47.030;15.396;2023-01-09T03:42:50;96308.00;;;4.65;100.00
22580;BME280;11456;47.030;15.396;2023-01-09T03:45:17;96313.44;;;4.73;100.00
22580;BME280;11456;47.030;15.396;2023-01-09T03:47:43;96310.16;;;4.79;100.00
22580;BME280;11456;47.030;15.396;2023-01-09T03:50:10;96301.63;;;4.94;100.00
22580;BME280;11456;47.030;15.396;2023-01-09T03:52:36;96290.31;;;4.64;100.00
22580;BME280;11456;47.030;15.396;2023-01-09T03:55:03;96308.13;;;4.64;100.00
22580;BME280;11456;47.030;15.396;2023-01-09T03:57:29;96306.25;;;4.74;100.00
22580;BME280;11456;47.030;15.396;2023-01-09T03:59:56;96295.53;;;4.83;100.00
22580;BME280;11456;47.030;15.396;2023-01-09T04:02:22;96294.09;;;4.89;100.00
22580;BME280;11456;47.030;15.396;2023-01-09T04:04:49;96296.84;;;4.97;100.00
22580;BME280;11456;47.030;15.396;2023-01-09T04:07:15;96295.38;;;5.38;99.44
22580;BME280;11456;47.030;15.396;2023-01-09T04:09:42;96296.63;;;5.26;99.85
22580;BME280;11456;47.030;15.396;2023-01-09T04:12:08;96303.91;;;4.89;100.00
22580;BME280;11456;47.030;15.396;2023-01-09T04:14:35;96292.34;;;4.98;100.00
22580;BME280;11456;47.030;15.396;2023-01-09T04:17:01;96301.19;;;5.16;100.00
22580;BME280;11456;47.030;15.396;2023-01-09T04:19:28;96290.19;;;5.19;100.00
22580;BME280;11456;47.030;15.396;2023-01-09T04:21:54;96303.34;;;5.30;100.00
22580;BME280;11456;47.030;15.396;2023-01-09T04:24:21;96299.81;;;5.47;99.46
22580;BME280;11456;47.030;15.396;2023-01-09T04:26:47;96295.09;;;5.41;100.00
22580;BME280;11456;47.030;15.396;2023-01-09T04:29:14;96289.97;;;5.48;100.00
22580;BME280;11456;47.030;15.396;2023-01-09T04:31:40;96295.69;;;5.53;98.60
22580;BME280;11456;47.030;15.396;2023-01-09T04:34:07;96296.78;;;5.42;100.00
22580;BME280;11456;47.030;15.396;2023-01-09T04:36:33;96299.06;;;5.37;100.00
22580;BME280;11456;47.030;15.396;2023-01-09T04:39:01;96303.97;;;5.24;100.00
22580;BME280;11456;47.030;15.396;2023-01-09T04:41:28;96311.13;;;5.41;100.00
22580;BME280;11456;47.030;15.396;2023-01-09T04:44:13;96306.69;;;5.32;100.00
22580;BME280;11456;47.030;15.396;2023-01-09T04:46:39;96307.13;;;5.45;100.00
22580;BME280;11456;47.030;15.396;2023-01-09T04:49:06;96300.09;;;5.44;100.00
22580;BME280;11456;47.030;15.396;2023-01-09T04:51:32;96311.41;;;5.38;100.00
22580;BME280;11456;47.030;15.396;2023-01-09T04:53:59;96308.06;;;5.36;100.00
22580;BME280;11456;47.030;15.396;2023-01-09T04:56:25;96311.72;;;5.35;100.00
22580;BME280;11456;47.030;15.396;2023-01-09T04:58:52;96298.63;;;5.24;100.00
22580;BME280;11456;47.030;15.396;2023-01-09T05:01:18;96299.97;;;5.28;100.00
22580;BME280;11456;47.030;15.396;2023-01-09T05:03:45;96312.25;;;5.21;100.00
22580;BME280;11456;47.030;15.396;2023-01-09T05:06:12;96304.78;;;5.42;100.00
22580;BME280;11456;47.030;15.396;2023-01-09T05:08:38;96310.13;;;5.42;100.00
22580;BME280;11456;47.030;15.396;2023-01-09T05:11:05;96313.09;;;5.39;100.00
22580;BME280;11456;47.030;15.396;2023-01-09T05:13:31;96302.13;;;5.42;100.00
22580;BME280;11456;47.030;15.396;2023-01-09T05:15:58;96298.13;;;5.46;100.00
22580;BME280;11456;47.030;15.396;2023-01-09T05:18:24;96293.41;;;5.40;100.00
22580;BME280;11456;47.030;15.396;2023-01-09T05:20:51;96283.50;;;5.33;100.00
22580;BME280;11456;47.030;15.396;2023-01-09T05:23:17;96280.38;;;5.37;100.00
22580;BME280;11456;47.030;15.396;2023-01-09T05:25:43;96291.81;;;5.30;100.00
22580;BME280;11456;47.030;15.396;2023-01-09T05:28:10;96278.91;;;5.25;100.00
22580;BME280;11456;47.030;15.396;2023-01-09T05:30:36;96282.59;;;5.24;100.00
22580;BME280;11456;47.030;15.396;2023-01-09T05:33:03;96276.19;;;5.17;99.90
22580;BME280;11456;47.030;15.396;2023-01-09T05:35:29;96274.75;;;5.05;100.00
22580;BME280;11456;47.030;15.396;2023-01-09T05:37:56;96283.41;;;4.89;100.00
22580;BME280;11456;47.030;15.396;2023-01-09T05:40:23;96284.94;;;4.92;100.00
22580;BME280;11456;47.030;15.396;2023-01-09T05:42:57;96285.00;;;5.00;100.00
22580;BME280;11456;47.030;15.396;2023-01-09T05:45:24;96278.41;;;4.86;100.00
22580;BME280;11456;47.030;15.396;2023-01-09T05:47:52;96278.75;;;4.73;100.00
22580;BME280;11456;47.030;15.396;2023-01-09T05:50:18;96280.16;;;4.68;100.00
22580;BME280;11456;47.030;15.396;2023-01-09T05:52:45;96278.44;;;4.76;100.00
22580;BME280;11456;47.030;15.396;2023-01-09T05:55:11;96281.81;;;4.78;100.00
22580;BME280;11456;47.030;15.396;2023-01-09T05:57:38;96273.66;;;4.80;100.00
22580;BME280;11456;47.030;15.396;2023-01-09T06:00:06;96270.06;;;4.71;100.00
22580;BME280;11456;47.030;15.396;2023-01-09T06:02:34;96265.00;;;4.68;100.00
22580;BME280;11456;47.030;15.396;2023-01-09T06:05:01;96259.69;;;4.68;100.00
22580;BME280;11456;47.030;15.396;2023-01-09T06:07:29;96253.25;;;4.61;100.00
22580;BME280;11456;47.030;15.396;2023-01-09T06:09:56;96259.19;;;4.55;100.00
22580;BME280;11456;47.030;15.396;2023-01-09T06:12:22;96272.13;;;4.50;100.00
22580;BME280;11456;47.030;15.396;2023-01-09T06:14:49;96264.50;;;4.65;100.00
22580;BME280;11456;47.030;15.396;2023-01-09T06:17:15;96267.53;;;4.70;100.00
22580;BME280;11456;47.030;15.396;2023-01-09T06:19:42;96268.09;;;4.73;100.00
22580;BME280;11456;47.030;15.396;2023-01-09T06:22:08;96263.34;;;4.67;100.00
22580;BME280;11456;47.030;15.396;2023-01-09T06:24:35;96266.31;;;4.64;100.00
22580;BME280;11456;47.030;15.396;2023-01-09T06:27:01;96278.94;;;4.62;100.00
22580;BME280;11456;47.030;15.396;2023-01-09T06:29:28;96280.72;;;4.71;100.00
22580;BME280;11456;47.030;15.396;2023-01-09T06:31:54;96276.28;;;4.62;100.00
22580;BME280;11456;47.030;15.396;2023-01-09T06:34:20;96259.41;;;4.71;100.00
22580;BME280;11456;47.030;15.396;2023-01-09T06:36:47;96270.41;;;4.59;100.00
22580;BME280;11456;47.030;15.396;2023-01-09T06:39:13;96279.69;;;4.55;100.00
22580;BME280;11456;47.030;15.396;2023-01-09T06:41:40;96288.44;;;4.47;100.00
22580;BME280;11456;47.030;15.396;2023-01-09T06:44:06;96300.19;;;4.54;100.00
22580;BME280;11456;47.030;15.396;2023-01-09T06:46:33;96295.69;;;4.55;100.00
22580;BME280;11456;47.030;15.396;2023-01-09T06:48:59;96306.44;;;4.63;100.00
22580;BME280;11456;47.030;15.396;2023-01-09T06:51:26;96303.44;;;4.75;100.00
22580;BME280;11456;47.030;15.396;2023-01-09T06:53:52;96287.44;;;4.75;100.00
22580;BME280;11456;47.030;15.396;2023-01-09T06:56:19;96284.94;;;4.92;100.00
22580;BME280;11456;47.030;15.396;2023-01-09T06:58:45;96284.78;;;4.93;100.00
22580;BME280;11456;47.030;15.396;2023-01-09T07:01:12;96286.81;;;4.81;100.00
22580;BME280;11456;47.030;15.396;2023-01-09T07:03:39;96283.56;;;4.88;100.00
22580;BME280;11456;47.030;15.396;2023-01-09T07:06:05;96284.13;;;4.91;100.00
22580;BME280;11456;47.030;15.396;2023-01-09T07:08:32;96284.78;;;4.93;100.00
22580;BME280;11456;47.030;15.396;2023-01-09T07:10:59;96288.94;;;5.05;100.00
22580;BME280;11456;47.030;15.396;2023-01-09T07:13:26;96288.69;;;4.99;100.00
22580;BME280;11456;47.030;15.396;2023-01-09T07:15:52;96287.91;;;4.89;100.00
22580;BME280;11456;47.030;15.396;2023-01-09T07:18:19;96295.91;;;4.89;100.00
22580;BME280;11456;47.030;15.396;2023-01-09T07:20:45;96302.22;;;4.88;100.00
22580;BME280;11456;47.030;15.396;2023-01-09T07:23:12;96299.97;;;4.93;100.00
22580;BME280;11456;47.030;15.396;2023-01-09T07:25:39;96298.75;;;5.05;100.00
22580;BME280;11456;47.030;15.396;2023-01-09T07:28:07;96307.66;;;4.96;100.00
22580;BME280;11456;47.030;15.396;2023-01-09T07:30:33;96306.66;;;4.97;100.00
22580;BME280;11456;47.030;15.396;2023-01-09T07:33:00;96299.38;;;4.99;100.00
22580;BME280;11456;47.030;15.396;2023-01-09T07:35:29;96296.75;;;5.07;100.00
22580;BME280;11456;47.030;15.396;2023-01-09T07:37:55;96307.16;;;5.10;100.00
22580;BME280;11456;47.030;15.396;2023-01-09T07:40:22;96305.41;;;5.18;100.00
22580;BME280;11456;47.030;15.396;2023-01-09T07:42:50;96303.50;;;5.11;100.00
22580;BME280;11456;47.030;15.396;2023-01-09T07:45:17;96297.31;;;5.28;100.00
22580;BME280;11456;47.030;15.396;2023-01-09T07:47:44;96290.84;;;5.31;100.00
22580;BME280;11456;47.030;15.396;2023-01-09T07:50:11;96298.13;;;5.46;100.00
22580;BME280;11456;47.030;15.396;2023-01-09T07:52:38;96296.44;;;5.45;100.00
22580;BME280;11456;47.030;15.396;2023-01-09T07:55:04;96295.78;;;5.43;100.00
22580;BME280;11456;47.030;15.396;2023-01-09T07:57:31;96301.03;;;5.53;100.00
22580;BME280;11456;47.030;15.396;2023-01-09T07:59:58;96305.75;;;5.59;100.00
22580;BME280;11456;47.030;15.396;2023-01-09T08:02:36;96298.38;;;5.79;100.00
22580;BME280;11456;47.030;15.396;2023-01-09T08:05:03;96302.00;;;5.87;100.00
22580;BME280;11456;47.030;15.396;2023-01-09T08:07:29;96308.19;;;5.88;100.00
22580;BME280;11456;47.030;15.396;2023-01-09T08:09:56;96297.53;;;5.96;100.00
22580;BME280;11456;47.030;15.396;2023-01-09T08:12:22;96296.75;;;6.03;100.00
22580;BME280;11456;47.030;15.396;2023-01-09T08:14:49;96283.81;;;6.17;100.00
22580;BME280;11456;47.030;15.396;2023-01-09T08:17:16;96296.75;;;6.29;100.00
22580;BME280;11456;47.030;15.396;2023-01-09T08:19:43;96280.66;;;6.55;100.00
22580;BME280;11456;47.030;15.396;2023-01-09T08:22:09;96284.84;;;6.58;100.00
22580;BME280;11456;47.030;15.396;2023-01-09T08:24:36;96293.72;;;6.66;100.00
22580;BME280;11456;47.030;15.396;2023-01-09T08:27:02;96283.31;;;6.97;100.00
22580;BME280;11456;47.030;15.396;2023-01-09T08:29:29;96277.59;;;6.84;99.50
22580;BME280;11456;47.030;15.396;2023-01-09T08:31:55;96286.13;;;6.88;99.87
22580;BME280;11456;47.030;15.396;2023-01-09T08:34:22;96283.59;;;6.86;99.32
22580;BME280;11456;47.030;15.396;2023-01-09T08:36:48;96278.09;;;6.88;100.00
22580;BME280;11456;47.030;15.396;2023-01-09T08:39:15;96278.63;;;6.99;99.59
22580;BME280;11456;47.030;15.396;2023-01-09T08:41:41;96277.41;;;6.77;99.95
22580;BME280;11456;47.030;15.396;2023-01-09T08:44:26;96282.63;;;6.95;99.68
22580;BME280;11456;47.030;15.396;2023-01-09T08:47:14;96282.63;;;6.95;99.49
22580;BME280;11456;47.030;15.396;2023-01-09T08:49:41;96282.00;;;7.17;99.59
22580;BME280;11456;47.030;15.396;2023-01-09T08:52:07;96284.69;;;7.25;99.59
22580;BME280;11456;47.030;15.396;2023-01-09T08:54:34;96281.00;;;7.27;98.74
22580;BME280;11456;47.030;15.396;2023-01-09T08:57:07;96284.56;;;7.35;98.63
22580;BME280;11456;47.030;15.396;2023-01-09T08:59:33;96292.41;;;7.29;98.44
22580;BME280;11456;47.030;15.396;2023-01-09T09:02:00;96304.47;;;7.41;98.46
22580;BME280;11456;47.030;15.396;2023-01-09T09:04:26;96298.09;;;7.50;99.23
22580;BME280;11456;47.030;15.396;2023-01-09T09:06:53;96298.63;;;7.53;98.78
22580;BME280;11456;47.030;15.396;2023-01-09T09:09:19;96304.81;;;7.62;97.84
22580;BME280;11456;47.030;15.396;2023-01-09T09:11:46;96306.66;;;7.53;97.97
22580;BME280;11456;47.030;15.396;2023-01-09T09:14:12;96319.69;;;7.56;98.26
22580;BME280;11456;47.030;15.396;2023-01-09T09:16:58;96310.34;;;7.52;98.31
22580;BME280;11456;47.030;15.396;2023-01-09T09:19:24;96311.84;;;7.55;98.68
22580;BME280;11456;47.030;15.396;2023-01-09T09:21:51;96306.84;;;7.60;98.67
22580;BME280;11456;47.030;15.396;2023-01-09T09:24:17;96312.84;;;7.62;98.79
22580;BME280;11456;47.030;15.396;2023-01-09T09:26:44;96312.19;;;7.68;99.32
22580;BME280;11456;47.030;15.396;2023-01-09T09:29:10;96301.81;;;7.73;100.00
22580;BME280;11456;47.030;15.396;2023-01-09T09:31:37;96303.81;;;7.79;100.00
22580;BME280;11456;47.030;15.396;2023-01-09T09:34:07;96285.19;;;7.94;100.00
22580;BME280;11456;47.030;15.396;2023-01-09T09:36:33;96282.34;;;8.03;100.00
22580;BME280;11456;47.030;15.396;2023-01-09T09:39:00;96284.19;;;7.95;100.00
22580;BME280;11456;47.030;15.396;2023-01-09T09:47:29;96291.72;;;8.07;100.00
22580;BME280;11456;47.030;15.396;2023-01-09T09:52:54;96253.91;;;8.89;100.00
22580;BME280;11456;47.030;15.396;2023-01-09T09:55:32;96256.09;;;9.16;100.00
22580;BME280;11456;47.030;15.396;2023-01-09T09:58:01;96252.75;;;9.14;99.24
22580;BME280;11456;47.030;15.396;2023-01-09T10:00:28;96254.19;;;9.02;100.00
22580;BME280;11456;47.030;15.396;2023-01-09T10:05:30;96254.25;;;8.85;100.00
22580;BME280;11456;47.030;15.396;2023-01-09T10:08:01;96244.91;;;9.04;100.00
22580;BME280;11456;47.030;15.396;2023-01-09T10:10:49;96243.28;;;9.26;100.00
22580;BME280;11456;47.030;15.396;2023-01-09T10:13:18;96249.91;;;9.38;100.00
22580;BME280;11456;47.030;15.396;2023-01-09T10:16:09;96252.84;;;9.51;100.00
22580;BME280;11456;47.030;15.396;2023-01-09T10:18:53;96267.06;;;9.75;100.00
22580;BME280;11456;47.030;15.396;2023-01-09T10:21:29;96245.78;;;9.88;100.00
22580;BME280;11456;47.030;15.396;2023-01-09T10:34:40;96224.69;;;10.14;95.50
22580;BME280;11456;47.030;15.396;2023-01-09T10:37:19;96247.41;;;9.59;99.16
22580;BME280;11456;47.030;15.396;2023-01-09T10:39:56;96247.50;;;9.43;100.00
22580;BME280;11456;47.030;15.396;2023-01-09T10:42:25;96244.47;;;9.46;100.00
22580;BME280;11456;47.030;15.396;2023-01-09T10:45:11;96252.41;;;9.62;99.88
22580;BME280;11456;47.030;15.396;2023-01-09T10:47:41;96247.13;;;9.92;97.46
22580;BME280;11456;47.030;15.396;2023-01-09T10:50:15;96258.50;;;9.56;97.34
22580;BME280;11456;47.030;15.396;2023-01-09T10:52:43;96270.81;;;9.28;99.66
22580;BME280;11456;47.030;15.396;2023-01-09T10:55:44;96275.66;;;9.02;100.00
22580;BME280;11456;47.030;15.396;2023-01-09T10:58:11;96279.38;;;9.01;100.00
22580;BME280;11456;47.030;15.396;2023-01-09T11:00:39;96268.88;;;8.83;100.00
22580;BME280;11456;47.030;15.396;2023-01-09T11:03:09;96266.06;;;8.76;100.00
22580;BME280;11456;47.030;15.396;2023-01-09T11:05:36;96265.41;;;8.66;100.00
22580;BME280;11456;47.030;15.396;2023-01-09T11:08:10;96277.91;;;8.51;100.00
22580;BME280;11456;47.030;15.396;2023-01-09T11:10:49;96280.94;;;8.40;100.00
22580;BME280;11456;47.030;15.396;2023-01-09T11:13:24;96286.31;;;8.40;100.00
22580;BME280;11456;47.030;15.396;2023-01-09T11:16:24;96285.56;;;8.62;100.00
22580;BME280;11456;47.030;15.396;2023-01-09T11:18:48;96278.16;;;8.64;100.00
22580;BME280;11456;47.030;15.396;2023-01-09T11:23:45;96280.69;;;8.66;100.00
22580;BME280;11456;47.030;15.396;2023-01-09T11:26:26;96285.22;;;8.65;100.00
22580;BME280;11456;47.030;15.396;2023-01-09T11:29:03;96275.88;;;8.53;100.00
22580;BME280;11456;47.030;15.396;2023-01-09T11:31:30;96270.72;;;8.82;100.00
22580;BME280;11456;47.030;15.396;2023-01-09T11:33:57;96260.28;;;8.57;100.00
22580;BME280;11456;47.030;15.396;2023-01-09T11:36:23;96277.91;;;8.51;100.00
22580;BME280;11456;47.030;15.396;2023-01-09T11:38:54;96272.53;;;8.51;100.00
22580;BME280;11456;47.030;15.396;2023-01-09T11:41:26;96264.53;;;8.43;100.00
22580;BME280;11456;47.030;15.396;2023-01-09T11:43:54;96264.91;;;8.32;100.00
22580;BME280;11456;47.030;15.396;2023-01-09T11:46:38;96272.88;;;8.48;100.00
22580;BME280;11456;47.030;15.396;2023-01-09T11:49:29;96265.28;;;8.60;100.00
22580;BME280;11456;47.030;15.396;2023-01-09T11:54:30;96266.63;;;8.64;100.00
22580;BME280;11456;47.030;15.396;2023-01-09T11:56:57;96264.75;;;8.64;100.00
22580;BME280;11456;47.030;15.396;2023-01-09T11:59:25;96256.78;;;8.48;100.00
22580;BME280;11456;47.030;15.396;2023-01-09T12:14:47;96262.72;;;8.74;100.00
22580;BME280;11456;47.030;15.396;2023-01-09T12:17:22;96253.00;;;8.65;100.00
22580;BME280;11456;47.030;15.396;2023-01-09T12:20:57;96266.44;;;8.65;100.00
22580;BME280;11456;47.030;15.396;2023-01-09T12:22:54;96264.41;;;8.67;100.00
22580;BME280;11456;47.030;15.396;2023-01-09T12:31:16;96246.66;;;8.58;100.00
22580;BME280;11456;47.030;15.396;2023-01-09T12:33:41;96241.03;;;8.45;100.00
22580;BME280;11456;47.030;15.396;2023-01-09T12:36:31;96234.59;;;8.62;100.00
22580;BME280;11456;47.030;15.396;2023-01-09T12:41:36;96241.66;;;8.55;100.00
22580;BME280;11456;47.030;15.396;2023-01-09T12:46:44;96237.63;;;8.59;100.00
22580;BME280;11456;47.030;15.396;2023-01-09T12:49:19;96229.53;;;8.67;100.00
22580;BME280;11456;47.030;15.396;2023-01-09T12:51:53;96228.22;;;8.63;100.00
22580;BME280;11456;47.030;15.396;2023-01-09T12:54:40;96232.88;;;8.69;100.00
22580;BME280;11456;47.030;15.396;2023-01-09T12:57:21;96240.88;;;8.77;100.00
22580;BME280;11456;47.030;15.396;2023-01-09T12:59:54;96243.94;;;8.66;100.00
22580;BME280;11456;47.030;15.396;2023-01-09T13:02:31;96249.69;;;8.63;100.00
22580;BME280;11456;47.030;15.396;2023-01-09T13:10:31;96259.84;;;8.21;100.00
22580;BME280;11456;47.030;15.396;2023-01-09T13:13:14;96265.41;;;8.19;100.00
22580;BME280;11456;47.030;15.396;2023-01-09T13:15:50;96263.34;;;8.29;100.00
22580;BME280;11456;47.030;15.396;2023-01-09T13:20:49;96274.91;;;8.30;100.00
22580;BME280;11456;47.030;15.396;2023-01-09T13:25:45;96272.56;;;8.27;100.00
22580;BME280;11456;47.030;15.396;2023-01-09T13:30:46;96283.31;;;8.35;100.00
22580;BME280;11456;47.030;15.396;2023-01-09T13:35:49;96288.00;;;8.41;100.00
22580;BME280;11456;47.030;15.396;2023-01-09T13:38:17;96291.97;;;8.45;100.00
22580;BME280;11456;47.030;15.396;2023-01-09T13:40:44;96304.09;;;8.25;100.00
22580;BME280;11456;47.030;15.396;2023-01-09T13:43:11;96316.47;;;8.26;100.00
22580;BME280;11456;47.030;15.396;2023-01-09T13:45:40;96312.16;;;8.17;100.00
22580;BME280;11456;47.030;15.396;2023-01-09T13:50:37;96330.25;;;8.15;100.00
22580;BME280;11456;47.030;15.396;2023-01-09T13:53:40;96329.56;;;8.21;100.00
22580;BME280;11456;47.030;15.396;2023-01-09T13:58:55;96312.16;;;8.17;100.00
22580;BME280;11456;47.030;15.396;2023-01-09T14:06:34;96321.22;;;8.79;99.04
22580;BME280;11456;47.030;15.396;2023-01-09T14:09:08;96330.91;;;8.41;100.00
22580;BME280;11456;47.030;15.396;2023-01-09T14:11:36;96327.53;;;8.39;100.00
22580;BME280;11456;47.030;15.396;2023-01-09T14:14:03;96325.75;;;8.31;100.00
22580;BME280;11456;47.030;15.396;2023-01-09T14:16:31;96319.19;;;8.34;100.00
22580;BME280;11456;47.030;15.396;2023-01-09T14:21:24;96311.81;;;8.36;100.00
22580;BME280;11456;47.030;15.396;2023-01-09T14:26:44;96309.28;;;8.34;100.00
22580;BME280;11456;47.030;15.396;2023-01-09T14:29:53;96299.41;;;8.35;100.00
22580;BME280;11456;47.030;15.396;2023-01-09T14:34:53;96295.03;;;8.26;100.00
22580;BME280;11456;47.030;15.396;2023-01-09T14:37:22;96301.06;;;8.20;100.00
22580;BME280;11456;47.030;15.396;2023-01-09T14:39:50;96281.28;;;8.21;100.00
22580;BME280;11456;47.030;15.396;2023-01-09T14:42:19;96279.97;;;8.17;100.00
22580;BME280;11456;47.030;15.396;2023-01-09T14:44:49;96288.38;;;8.05;100.00
22580;BME280;11456;47.030;15.396;2023-01-09T14:47:21;96286.03;;;7.94;100.00
22580;BME280;11456;47.030;15.396;2023-01-09T14:54:53;96278.69;;;7.80;100.00
22580;BME280;11456;47.030;15.396;2023-01-09T14:57:26;96284.38;;;7.77;100.00
22580;BME280;11456;47.030;15.396;2023-01-09T15:02:23;96290.41;;;7.71;100.00